Time;durP1;ratioP1;P1;durP2;ratioP2;P2;SDS_P1;SDS_P2;PMS_P1;PMS_P2;Temp;Humidity;BMP_temperature;BMP_pressure;BME280_temperature;BME280_humidity;BME280_pressure;Samples;Min_cycle;Max_cycle;Signal;HPM_P1;HPM_P2
2023/07/07 00:02:10;;;;;;;;;;;;;;;19.93;86.47;100843.95;107683;1254;109680;-61
2023/07/07 00:04:39;;;;;;;;;;;;;;;19.92;86.52;100840.06;107585;1256;107136;-61
2023/07/07 00:07:08;;;;;;;;;;;;;;;19.91;87.37;100842.41;107620;1254;97893;-61
2023/07/07 00:09:36;;;;;;;;;;;;;;;19.87;87.40;100835.77;107643;1257;97893;-61
2023/07/07 00:12:04;;;;;;;;;;;;;;;19.85;86.69;100838.71;107636;1254;111012;-60
2023/07/07 00:14:33;;;;;;;;;;;;;;;19.86;86.94;100847.30;107586;1254;109874;-62
2023/07/07 00:17:03;;;;;;;;;;;;;;;19.87;87.42;100850.98;107562;1256;107435;-60
2023/07/07 00:19:36;;;;;;;;;;;;;;;19.90;86.54;100843.75;107616;1254;97810;-62
2023/07/07 00:22:06;;;;;;;;;;;;;;;19.95;86.33;100848.73;107641;1254;97893;-61
2023/07/07 00:24:34;;;;;;;;;;;;;;;20.00;86.30;100851.14;107644;1254;111100;-62
2023/07/07 00:27:03;;;;;;;;;;;;;;;20.07;86.48;100846.20;107664;1254;109255;-61
2023/07/07 00:29:31;;;;;;;;;;;;;;;20.08;86.03;100845.27;107577;1257;108727;-66
2023/07/07 00:32:05;;;;;;;;;;;;;;;20.07;86.00;100839.64;107437;1254;97721;-61
2023/07/07 00:34:33;;;;;;;;;;;;;;;20.04;86.53;100845.45;107529;1254;97903;-60
2023/07/07 00:37:01;;;;;;;;;;;;;;;19.99;86.26;100848.36;107661;1251;111991;-61
2023/07/07 00:39:30;;;;;;;;;;;;;;;19.98;85.79;100849.98;107473;1250;110404;-61
2023/07/07 00:41:58;;;;;;;;;;;;;;;20.01;85.54;100851.94;107481;1251;108232;-63
2023/07/07 00:44:45;;;;;;;;;;;;;;;20.05;85.52;100852.19;107498;1251;97924;-62
2023/07/07 00:47:13;;;;;;;;;;;;;;;20.08;85.35;100856.41;107525;1254;97748;-60
2023/07/07 00:49:41;;;;;;;;;;;;;;;20.09;85.95;100858.30;107498;1251;111394;-60
2023/07/07 00:52:10;;;;;;;;;;;;;;;20.09;85.53;100869.33;107524;1251;109875;-61
2023/07/07 00:54:38;;;;;;;;;;;;;;;20.10;85.37;100870.30;107516;1251;108569;-62
2023/07/07 00:57:06;;;;;;;;;;;;;;;20.10;85.98;100865.55;107582;1254;97839;-61
2023/07/07 00:59:37;;;;;;;;;;;;;;;20.10;85.42;100871.85;107619;1256;97693;-61
2023/07/07 01:02:09;;;;;;;;;;;;;;;20.10;85.38;100865.55;107631;1254;111533;-63
2023/07/07 01:04:38;;;;;;;;;;;;;;;20.11;85.28;100877.65;107644;1254;109046;-62
2023/07/07 01:07:08;;;;;;;;;;;;;;;20.12;85.23;100874.00;107614;1254;107825;-62
2023/07/07 01:09:36;;;;;;;;;;;;;;;20.12;85.00;100883.02;107612;1254;98091;-61
2023/07/07 01:12:10;;;;;;;;;;;;;;;20.11;84.80;100881.86;107596;1251;97813;-61
2023/07/07 01:14:38;;;;;;;;;;;;;;;20.12;84.99;100880.77;107615;1254;111009;-61
2023/07/07 01:17:28;;;;;;;;;;;;;;;20.14;84.57;100875.38;107607;1254;109538;-62
2023/07/07 01:20:07;;;;;;;;;;;;;;;20.14;84.66;100874.55;107618;1256;108235;-61
2023/07/07 01:22:36;;;;;;;;;;;;;;;20.14;84.40;100869.02;107566;1254;97809;-59
2023/07/07 01:25:12;;;;;;;;;;;;;;;20.15;84.39;100870.59;107619;1254;97897;-63
2023/07/07 01:28:12;;;;;;;;;;;;;;;20.15;84.09;100875.72;107584;1251;111714;-62
2023/07/07 01:30:44;;;;;;;;;;;;;;;20.15;83.90;100875.33;107536;1251;110068;-62
2023/07/07 01:33:14;;;;;;;;;;;;;;;20.14;83.75;100874.20;107461;1251;108378;-61
2023/07/07 01:35:43;;;;;;;;;;;;;;;20.14;83.84;100877.77;107560;1254;97759;-60
2023/07/07 01:38:32;;;;;;;;;;;;;;;20.15;83.91;100874.27;107479;1251;97809;-61
2023/07/07 01:41:23;;;;;;;;;;;;;;;20.15;84.14;100872.80;107521;1251;110400;-61
2023/07/07 01:44:10;;;;;;;;;;;;;;;20.08;84.47;100874.09;107384;1257;109743;-61
2023/07/07 01:46:48;;;;;;;;;;;;;;;20.00;84.00;100880.80;107599;1256;107943;-61
2023/07/07 01:49:26;;;;;;;;;;;;;;;19.97;84.28;100881.44;107521;1251;97890;-62
2023/07/07 01:52:02;;;;;;;;;;;;;;;19.94;85.46;100880.70;107471;1254;97829;-60
2023/07/07 01:54:32;;;;;;;;;;;;;;;19.90;86.35;100881.54;107485;1251;111728;-61
2023/07/07 01:57:01;;;;;;;;;;;;;;;19.88;86.05;100877.28;107582;1251;109783;-62
2023/07/07 01:59:30;;;;;;;;;;;;;;;19.86;86.47;100877.86;107602;1251;107857;-60
2023/07/07 02:01:58;;;;;;;;;;;;;;;19.86;86.28;100885.04;107596;1251;97963;-62
2023/07/07 02:04:28;;;;;;;;;;;;;;;19.90;86.07;100885.03;107552;1251;97797;-63
2023/07/07 02:06:56;;;;;;;;;;;;;;;19.94;86.72;100882.85;107617;1251;111735;-61
2023/07/07 02:09:25;;;;;;;;;;;;;;;19.93;86.94;100884.55;107499;1251;109701;-60
2023/07/07 02:11:53;;;;;;;;;;;;;;;19.93;86.70;100883.08;107629;1251;107614;-59
2023/07/07 02:14:22;;;;;;;;;;;;;;;19.94;86.41;100884.44;107481;1251;97820;-61
2023/07/07 02:16:50;;;;;;;;;;;;;;;19.96;87.32;100884.33;107604;1251;97765;-59
2023/07/07 02:19:18;;;;;;;;;;;;;;;19.97;86.53;100882.83;107524;1251;111766;-62
2023/07/07 02:21:46;;;;;;;;;;;;;;;20.02;86.60;100886.86;107536;1251;110883;-63
2023/07/07 02:24:14;;;;;;;;;;;;;;;20.08;86.50;100885.32;107469;1251;107840;-61
2023/07/07 02:26:42;;;;;;;;;;;;;;;20.13;86.12;100883.09;107527;1251;97763;-62
2023/07/07 02:29:11;;;;;;;;;;;;;;;20.11;85.61;100886.18;107517;1251;97809;-62
2023/07/07 02:31:39;;;;;;;;;;;;;;;20.10;85.74;100880.69;107666;1253;111550;-61
2023/07/07 02:34:07;;;;;;;;;;;;;;;20.10;85.81;100878.20;107642;1254;109202;-61
2023/07/07 02:36:38;;;;;;;;;;;;;;;20.05;85.75;100882.77;107514;1253;108151;-63
2023/07/07 02:39:06;;;;;;;;;;;;;;;20.03;85.97;100887.13;107609;1253;98259;-60
2023/07/07 02:41:35;;;;;;;;;;;;;;;20.00;86.52;100893.02;107480;1251;97678;-61
2023/07/07 02:44:04;;;;;;;;;;;;;;;19.98;86.30;100896.06;107516;1251;111426;-62
2023/07/07 02:46:32;;;;;;;;;;;;;;;19.96;87.49;100896.92;107506;1251;108840;-62
2023/07/07 02:49:00;;;;;;;;;;;;;;;19.91;87.93;100900.34;107593;1257;108211;-60
2023/07/07 02:51:28;;;;;;;;;;;;;;;19.88;88.40;100900.46;107507;1253;98212;-62
2023/07/07 02:53:56;;;;;;;;;;;;;;;19.85;88.43;100899.84;107645;1254;97820;-64
2023/07/07 02:56:24;;;;;;;;;;;;;;;19.83;88.75;100899.72;107571;1253;111341;-60
2023/07/07 02:58:55;;;;;;;;;;;;;;;19.80;89.20;100902.84;107486;1254;109852;-60
2023/07/07 03:01:23;;;;;;;;;;;;;;;19.77;89.42;100907.38;107515;1250;108168;-61
2023/07/07 03:03:56;;;;;;;;;;;;;;;19.79;88.75;100912.39;107533;1251;97918;-61
2023/07/07 03:06:25;;;;;;;;;;;;;;;19.87;88.58;100912.58;107539;1251;97906;-62
2023/07/07 03:08:53;;;;;;;;;;;;;;;19.95;88.38;100912.80;107450;1251;112652;-61
2023/07/07 03:11:23;;;;;;;;;;;;;;;20.05;88.11;100915.62;107529;1254;109661;-60
2023/07/07 03:13:53;;;;;;;;;;;;;;;20.11;87.69;100919.16;107500;1251;108811;-60
2023/07/07 03:16:30;;;;;;;;;;;;;;;20.15;88.03;100920.13;107620;1253;97826;-60
2023/07/07 03:19:04;;;;;;;;;;;;;;;20.11;88.47;100923.58;107481;1253;98519;-62
2023/07/07 03:21:34;;;;;;;;;;;;;;;20.03;89.03;100925.31;107571;1251;111169;-61
2023/07/07 03:24:17;;;;;;;;;;;;;;;19.95;89.87;100924.64;107560;1254;109565;-60
2023/07/07 03:26:45;;;;;;;;;;;;;;;19.90;90.74;100926.23;107526;1254;106844;-62
2023/07/07 03:29:15;;;;;;;;;;;;;;;19.88;90.87;100927.55;107507;1251;97695;-61
2023/07/07 03:31:44;;;;;;;;;;;;;;;19.86;92.21;100931.05;107625;1253;97841;-62
2023/07/07 03:34:13;;;;;;;;;;;;;;;19.83;92.06;100928.89;107653;1251;111449;-62
2023/07/07 03:36:44;;;;;;;;;;;;;;;19.82;92.68;100928.73;107579;1251;109585;-62
2023/07/07 03:39:16;;;;;;;;;;;;;;;19.81;93.47;100925.56;107517;1254;108213;-61
2023/07/07 03:41:44;;;;;;;;;;;;;;;19.82;93.30;100918.64;107433;1251;97816;-62
2023/07/07 03:44:15;;;;;;;;;;;;;;;19.82;94.41;100921.36;107626;1251;97883;-62
2023/07/07 03:46:43;;;;;;;;;;;;;;;19.81;94.70;100919.84;107651;1251;113239;-59
2023/07/07 03:49:12;;;;;;;;;;;;;;;19.81;94.69;100920.94;107621;1254;109659;-61
2023/07/07 03:51:40;;;;;;;;;;;;;;;19.79;95.19;100918.00;107568;1251;107843;-61
2023/07/07 03:54:09;;;;;;;;;;;;;;;19.81;95.13;100915.95;107490;1251;97704;-60
2023/07/07 03:56:37;;;;;;;;;;;;;;;19.83;95.56;100914.45;107556;1252;97815;-61
2023/07/07 03:59:05;;;;;;;;;;;;;;;19.86;95.49;100915.59;107596;1251;112074;-61
2023/07/07 04:01:34;;;;;;;;;;;;;;;19.89;95.59;100917.95;107643;1254;109638;-64
2023/07/07 04:04:02;;;;;;;;;;;;;;;19.93;95.15;100915.38;107453;1254;108386;-60
2023/07/07 04:06:35;;;;;;;;;;;;;;;19.96;95.31;100919.95;107643;1251;97723;-61
2023/07/07 04:09:03;;;;;;;;;;;;;;;20.03;94.99;100919.47;107593;1254;97806;-59
2023/07/07 04:11:32;;;;;;;;;;;;;;;20.11;94.88;100917.61;107546;1251;111633;-60
2023/07/07 04:14:00;;;;;;;;;;;;;;;20.16;94.64;100914.27;107586;1251;109865;-62
2023/07/07 04:16:28;;;;;;;;;;;;;;;20.24;93.94;100918.28;107612;1251;108496;-62
2023/07/07 04:18:56;;;;;;;;;;;;;;;20.37;93.67;100917.92;107499;1254;97799;-61
2023/07/07 04:21:27;;;;;;;;;;;;;;;20.43;92.92;100925.08;107687;1257;97847;-61
2023/07/07 04:23:56;;;;;;;;;;;;;;;20.46;92.65;100927.28;107576;1251;110773;-62
2023/07/07 04:26:26;;;;;;;;;;;;;;;20.49;92.06;100927.56;107639;1251;109767;-61
2023/07/07 04:28:54;;;;;;;;;;;;;;;20.55;92.05;100927.60;107635;1251;108198;-64
2023/07/07 04:31:23;;;;;;;;;;;;;;;20.60;91.28;100925.59;107477;1251;97799;-61
2023/07/07 04:33:52;;;;;;;;;;;;;;;20.66;90.84;100924.87;107505;1251;97806;-60
2023/07/07 04:36:21;;;;;;;;;;;;;;;20.71;90.53;100925.33;107533;1251;111199;-62
2023/07/07 04:38:49;;;;;;;;;;;;;;;20.75;90.08;100923.73;107505;1251;109249;-61
2023/07/07 04:41:22;;;;;;;;;;;;;;;20.79;89.82;100924.48;107436;1250;109589;-61
2023/07/07 04:43:52;;;;;;;;;;;;;;;20.86;89.61;100926.96;107447;1251;97693;-61
2023/07/07 04:46:23;;;;;;;;;;;;;;;20.93;89.22;100924.75;107497;1251;97810;-63
2023/07/07 04:48:52;;;;;;;;;;;;;;;21.02;89.02;100917.71;107487;1250;112363;-61
2023/07/07 04:51:20;;;;;;;;;;;;;;;21.10;88.56;100920.29;107516;1251;109575;-63
2023/07/07 04:53:48;;;;;;;;;;;;;;;21.18;88.21;100920.54;107633;1251;108592;-61
2023/07/07 04:56:18;;;;;;;;;;;;;;;21.26;87.64;100923.94;107499;1251;97802;-61
2023/07/07 04:58:48;;;;;;;;;;;;;;;21.32;87.17;100924.21;107490;1254;97746;-61
2023/07/07 05:01:22;;;;;;;;;;;;;;;21.43;87.09;100930.54;107539;1251;112167;-62
2023/07/07 05:03:52;;;;;;;;;;;;;;;21.55;86.48;100930.42;107663;1251;109320;-63
2023/07/07 05:06:22;;;;;;;;;;;;;;;21.66;85.88;100934.40;107434;1251;107632;-61
2023/07/07 05:08:50;;;;;;;;;;;;;;;21.74;85.15;100934.80;107487;1251;97813;-62
2023/07/07 05:11:19;;;;;;;;;;;;;;;21.73;83.35;100935.56;107549;1251;97874;-61
2023/07/07 05:13:48;;;;;;;;;;;;;;;21.77;83.45;100933.99;107666;1251;111625;-62
2023/07/07 05:16:18;;;;;;;;;;;;;;;21.81;82.86;100929.43;107635;1252;109360;-63
2023/07/07 05:18:46;;;;;;;;;;;;;;;21.91;82.64;100933.88;107657;1251;108539;-61
2023/07/07 05:21:16;;;;;;;;;;;;;;;22.01;81.40;100933.34;107609;1251;97902;-62
2023/07/07 05:23:44;;;;;;;;;;;;;;;22.09;80.79;100928.59;107577;1251;97826;-64
2023/07/07 05:26:13;;;;;;;;;;;;;;;22.18;80.31;100929.36;107532;1251;111749;-61
2023/07/07 05:28:41;;;;;;;;;;;;;;;22.26;79.53;100926.48;107516;1251;109086;-61
2023/07/07 05:31:09;;;;;;;;;;;;;;;22.37;79.78;100927.04;107498;1254;108115;-61
2023/07/07 05:33:38;;;;;;;;;;;;;;;22.48;79.15;100925.52;107486;1251;97895;-61
2023/07/07 05:36:08;;;;;;;;;;;;;;;22.56;78.19;100926.48;107506;1253;97916;-61
2023/07/07 05:38:38;;;;;;;;;;;;;;;22.62;77.55;100926.30;107449;1253;110795;-61
2023/07/07 05:41:07;;;;;;;;;;;;;;;22.75;77.23;100929.11;107640;1253;109356;-61
2023/07/07 05:43:35;;;;;;;;;;;;;;;22.94;76.50;100923.26;107561;1253;108783;-61
2023/07/07 05:46:07;;;;;;;;;;;;;;;23.21;75.83;100926.45;107658;1251;97815;-62
2023/07/07 05:48:36;;;;;;;;;;;;;;;23.44;74.75;100924.23;107562;1251;97885;-62
2023/07/07 05:51:05;;;;;;;;;;;;;;;23.55;73.83;100925.29;107564;1254;110676;-61
2023/07/07 05:53:34;;;;;;;;;;;;;;;23.57;72.95;100928.70;107672;1254;109436;-62
2023/07/07 05:56:06;;;;;;;;;;;;;;;23.55;72.43;100924.56;107604;1251;108351;-60
2023/07/07 05:58:35;;;;;;;;;;;;;;;23.55;73.08;100922.20;107653;1251;97813;-64
2023/07/07 06:01:03;;;;;;;;;;;;;;;23.58;72.74;100924.90;107617;1254;97733;-61
2023/07/07 06:03:32;;;;;;;;;;;;;;;23.61;72.72;100926.02;107621;1253;111849;-61
2023/07/07 06:06:01;;;;;;;;;;;;;;;23.75;72.34;100931.48;107621;1254;109780;-62
2023/07/07 06:08:33;;;;;;;;;;;;;;;23.68;71.27;100929.31;107626;1252;107667;-62
2023/07/07 06:11:02;;;;;;;;;;;;;;;23.60;71.86;100931.23;107635;1254;97807;-61
2023/07/07 06:13:30;;;;;;;;;;;;;;;23.54;72.03;100934.63;107663;1252;97711;-63
2023/07/07 06:15:59;;;;;;;;;;;;;;;23.46;72.34;100933.10;107609;1254;111883;-61
2023/07/07 06:18:27;;;;;;;;;;;;;;;23.51;72.74;100932.79;107458;1253;109867;-61
2023/07/07 06:20:58;;;;;;;;;;;;;;;23.68;72.71;100936.89;107548;1254;106709;-62
2023/07/07 06:23:27;;;;;;;;;;;;;;;23.75;71.46;100939.41;107622;1254;98023;-60
2023/07/07 06:25:56;;;;;;;;;;;;;;;23.72;71.29;100933.85;107624;1254;97710;-62
2023/07/07 06:28:24;;;;;;;;;;;;;;;23.85;71.65;100933.53;107653;1254;111689;-62
2023/07/07 06:30:52;;;;;;;;;;;;;;;24.07;71.50;100939.39;107603;1254;109044;-63
2023/07/07 06:33:21;;;;;;;;;;;;;;;24.20;69.82;100944.05;107646;1254;107940;-62
2023/07/07 06:35:51;;;;;;;;;;;;;;;24.37;69.40;100943.14;107600;1253;97723;-64
2023/07/07 06:38:22;;;;;;;;;;;;;;;24.61;67.82;100946.81;107597;1256;97932;-65
2023/07/07 06:40:53;;;;;;;;;;;;;;;24.75;67.24;100951.66;107590;1253;111969;-66
2023/07/07 06:43:26;;;;;;;;;;;;;;;24.94;66.45;100946.63;107649;1251;109984;-63
2023/07/07 06:45:55;;;;;;;;;;;;;;;25.05;65.34;100952.67;107631;1253;108064;-61
2023/07/07 06:48:26;;;;;;;;;;;;;;;24.96;64.67;100954.38;107612;1251;97902;-63
2023/07/07 06:50:56;;;;;;;;;;;;;;;25.04;65.35;100951.83;107553;1251;97790;-62
2023/07/07 06:53:25;;;;;;;;;;;;;;;25.16;64.92;100956.27;107656;1253;112388;-62
2023/07/07 06:55:53;;;;;;;;;;;;;;;25.42;63.03;100958.02;107674;1251;109194;-61
2023/07/07 06:58:22;;;;;;;;;;;;;;;25.57;61.63;100951.91;107606;1254;107809;-62
2023/07/07 07:00:50;;;;;;;;;;;;;;;25.72;61.42;100954.04;107668;1253;97807;-62
2023/07/07 07:03:20;;;;;;;;;;;;;;;25.77;61.28;100960.41;107664;1253;97916;-63
2023/07/07 07:05:49;;;;;;;;;;;;;;;25.82;61.33;100955.19;107714;1251;112452;-61
2023/07/07 07:08:17;;;;;;;;;;;;;;;25.93;60.42;100958.06;107651;1255;109767;-61
2023/07/07 07:10:45;;;;;;;;;;;;;;;26.02;60.83;100963.08;107643;1254;108570;-61
2023/07/07 07:13:13;;;;;;;;;;;;;;;26.18;59.94;100960.91;107600;1253;97692;-61
2023/07/07 07:15:41;;;;;;;;;;;;;;;26.22;59.66;100965.59;107629;1252;97742;-63
2023/07/07 07:18:11;;;;;;;;;;;;;;;26.27;60.14;100966.96;107504;1254;113170;-63
2023/07/07 07:20:48;;;;;;;;;;;;;;;26.38;60.02;100963.73;107602;1254;110389;-62
2023/07/07 07:23:20;;;;;;;;;;;;;;;26.42;59.52;100969.19;107619;1253;107949;-64
2023/07/07 07:25:48;;;;;;;;;;;;;;;26.35;59.64;100971.98;107596;1251;97720;-62
2023/07/07 07:28:16;;;;;;;;;;;;;;;26.37;59.49;100977.88;107586;1251;97840;-62
2023/07/07 07:30:45;;;;;;;;;;;;;;;26.38;58.63;100980.93;107625;1254;111686;-63
2023/07/07 07:33:14;;;;;;;;;;;;;;;26.30;57.78;100984.92;107641;1251;109472;-62
2023/07/07 07:35:43;;;;;;;;;;;;;;;26.16;58.38;100987.11;107595;1255;108186;-64
2023/07/07 07:38:13;;;;;;;;;;;;;;;26.04;58.90;100993.73;107516;1254;97825;-61
2023/07/07 07:40:42;;;;;;;;;;;;;;;25.97;58.54;100995.54;107700;1253;97810;-62
2023/07/07 07:43:10;;;;;;;;;;;;;;;25.85;58.96;101002.11;107621;1254;111230;-63
2023/07/07 07:45:38;;;;;;;;;;;;;;;25.83;59.55;101001.63;107639;1251;110138;-61
2023/07/07 07:48:06;;;;;;;;;;;;;;;25.89;59.26;101005.52;107618;1251;108516;-63
2023/07/07 07:50:35;;;;;;;;;;;;;;;25.92;58.89;101005.98;107496;1251;97874;-62
2023/07/07 07:53:03;;;;;;;;;;;;;;;25.85;58.98;101010.20;107588;1251;97813;-61
2023/07/07 07:55:31;;;;;;;;;;;;;;;25.72;59.02;101011.17;107652;1255;111856;-62
2023/07/07 07:57:59;;;;;;;;;;;;;;;25.55;59.42;101012.79;107657;1254;109701;-62
2023/07/07 08:00:27;;;;;;;;;;;;;;;25.50;59.84;101011.02;107632;1253;108820;-62
2023/07/07 08:02:55;;;;;;;;;;;;;;;25.39;60.37;101014.31;106904;1254;1001845;-62
2023/07/07 08:05:24;;;;;;;;;;;;;;;25.36;60.87;101008.23;107678;1252;97803;-62
2023/07/07 08:07:52;;;;;;;;;;;;;;;25.41;60.46;101010.84;107684;1254;111560;-62
2023/07/07 08:10:21;;;;;;;;;;;;;;;25.47;60.36;101009.50;107650;1253;108849;-63
2023/07/07 08:12:49;;;;;;;;;;;;;;;25.43;60.18;101014.05;107653;1254;108197;-60
2023/07/07 08:15:18;;;;;;;;;;;;;;;25.20;60.37;101010.02;107634;1253;97848;-61
2023/07/07 08:17:46;;;;;;;;;;;;;;;25.06;60.95;101011.44;107665;1254;97771;-61
2023/07/07 08:20:16;;;;;;;;;;;;;;;25.14;61.30;101015.93;107641;1254;111878;-62
2023/07/07 08:22:45;;;;;;;;;;;;;;;25.25;61.03;101011.02;107601;1254;108966;-62
2023/07/07 08:25:13;;;;;;;;;;;;;;;25.37;60.81;101013.06;107568;1254;108065;-61
2023/07/07 08:27:42;;;;;;;;;;;;;;;25.49;60.65;101008.91;107615;1251;97893;-61
2023/07/07 08:30:30;;;;;;;;;;;;;;;25.69;60.21;101011.77;107598;1251;97822;-61
2023/07/07 08:32:58;;;;;;;;;;;;;;;25.85;60.27;101012.16;107614;1251;111351;-61
2023/07/07 08:35:27;;;;;;;;;;;;;;;26.11;59.26;101012.04;107655;1251;108936;-63
2023/07/07 08:37:55;;;;;;;;;;;;;;;26.15;58.37;101011.90;107610;1251;107724;-63
2023/07/07 08:40:24;;;;;;;;;;;;;;;26.28;58.72;101006.77;107587;1251;97835;-61
2023/07/07 08:42:53;;;;;;;;;;;;;;;26.61;57.45;100998.33;107635;1252;97800;-61
2023/07/07 08:45:30;;;;;;;;;;;;;;;26.81;57.22;101002.42;107687;1253;111213;-61
2023/07/07 08:48:12;;;;;;;;;;;;;;;27.04;56.39;101003.45;107602;1251;110483;-63
2023/07/07 08:50:44;;;;;;;;;;;;;;;27.22;55.12;101001.42;107608;1254;108478;-62
2023/07/07 08:53:31;;;;;;;;;;;;;;;27.38;54.12;100992.77;107560;1253;97863;-62
2023/07/07 08:56:05;;;;;;;;;;;;;;;27.45;54.76;100998.52;107603;1254;97808;-63
2023/07/07 08:58:53;;;;;;;;;;;;;;;27.62;54.77;100995.11;107592;1251;112148;-61
2023/07/07 09:01:21;;;;;;;;;;;;;;;27.84;53.77;100998.10;107653;1256;109815;-64
2023/07/07 09:03:49;;;;;;;;;;;;;;;27.89;53.36;100997.70;107627;1251;108328;-61
2023/07/07 09:06:17;;;;;;;;;;;;;;;28.02;53.10;100998.55;107658;1251;98486;-60
2023/07/07 09:08:48;;;;;;;;;;;;;;;27.76;52.48;100998.95;107608;1251;97809;-61
2023/07/07 09:11:25;;;;;;;;;;;;;;;27.50;53.36;100999.41;107639;1251;112281;-60
2023/07/07 09:13:56;;;;;;;;;;;;;;;27.10;54.20;101000.11;107600;1250;109257;-60
2023/07/07 09:16:27;;;;;;;;;;;;;;;27.00;55.07;101004.04;107585;1250;106813;-63
2023/07/07 09:19:00;;;;;;;;;;;;;;;26.73;55.15;101005.64;107641;1252;97880;-61
2023/07/07 09:21:35;;;;;;;;;;;;;;;26.42;55.69;101009.66;107604;1251;98183;-62
2023/07/07 09:24:09;;;;;;;;;;;;;;;26.23;56.35;101001.41;107669;1251;110975;-62
2023/07/07 09:26:38;;;;;;;;;;;;;;;26.34;56.62;100999.27;107671;1252;109679;-61
2023/07/07 09:29:13;;;;;;;;;;;;;;;26.49;56.64;101000.40;107635;1254;106721;-61
2023/07/07 09:31:42;;;;;;;;;;;;;;;26.45;56.86;100999.92;107631;1251;97839;-59
2023/07/07 09:34:12;;;;;;;;;;;;;;;26.44;56.24;100993.44;107618;1251;97703;-63
2023/07/07 09:36:47;;;;;;;;;;;;;;;26.33;56.62;100994.70;107572;1251;111154;-64
2023/07/07 09:39:42;;;;;;;;;;;;;;;26.37;57.24;100992.44;107588;1251;109997;-62
2023/07/07 09:42:20;;;;;;;;;;;;;;;26.47;56.94;100993.41;107615;1251;108479;-60
2023/07/07 09:44:51;;;;;;;;;;;;;;;26.59;57.05;100989.27;107590;1251;97688;-61
2023/07/07 09:47:19;;;;;;;;;;;;;;;26.57;56.60;100987.90;107562;1251;97862;-63
2023/07/07 09:49:57;;;;;;;;;;;;;;;26.52;56.03;100988.67;107620;1254;112346;-62
2023/07/07 09:52:47;;;;;;;;;;;;;;;26.42;56.26;100986.49;107564;1251;109310;-63
2023/07/07 09:55:19;;;;;;;;;;;;;;;26.65;56.88;100979.83;107629;1251;108379;-61
2023/07/07 09:57:56;;;;;;;;;;;;;;;26.79;56.24;100981.02;107571;1251;97868;-63
2023/07/07 10:00:29;;;;;;;;;;;;;;;26.85;56.52;100977.13;107584;1253;97698;-64
2023/07/07 10:03:25;;;;;;;;;;;;;;;27.24;55.54;100969.73;107616;1254;112121;-61
2023/07/07 10:05:55;;;;;;;;;;;;;;;27.59;54.55;100970.36;107626;1256;110779;-61
2023/07/07 10:08:27;;;;;;;;;;;;;;;27.93;54.21;100965.27;107602;1251;107831;-65
2023/07/07 10:11:16;;;;;;;;;;;;;;;28.29;53.72;100968.36;107576;1250;97822;-63
2023/07/07 10:13:52;;;;;;;;;;;;;;;28.56;52.78;100968.64;107619;1251;98292;-63
2023/07/07 10:16:21;;;;;;;;;;;;;;;28.45;51.27;100964.04;107628;1250;112944;-62
2023/07/07 10:18:52;;;;;;;;;;;;;;;28.80;51.43;100959.11;107596;1251;109650;-64
2023/07/07 10:21:23;;;;;;;;;;;;;;;29.22;51.08;100961.75;107525;1251;108252;-63
2023/07/07 10:23:52;;;;;;;;;;;;;;;29.94;50.17;100963.95;107511;1250;97814;-65
2023/07/07 10:26:22;;;;;;;;;;;;;;;30.77;47.84;100957.39;107620;1251;97835;-62
2023/07/07 10:28:52;;;;;;;;;;;;;;;31.56;45.64;100955.48;107661;1251;111847;-61
2023/07/07 10:31:23;;;;;;;;;;;;;;;32.23;43.79;100955.41;107570;1254;109993;-61
2023/07/07 10:33:56;;;;;;;;;;;;;;;32.84;42.63;100953.89;107577;1251;109474;-60
2023/07/07 10:36:28;;;;;;;;;;;;;;;33.50;42.03;100956.34;107589;1250;97816;-62
2023/07/07 10:38:58;;;;;;;;;;;;;;;33.92;40.57;100955.68;107640;1251;97742;-63
2023/07/07 10:41:27;;;;;;;;;;;;;;;34.12;39.09;100956.70;107563;1251;111786;-64
2023/07/07 10:43:55;;;;;;;;;;;;;;;34.38;38.17;100963.48;107620;1251;109518;-60
2023/07/07 10:46:24;;;;;;;;;;;;;;;34.56;37.56;100958.64;107585;1251;108719;-60
2023/07/07 10:48:55;;;;;;;;;;;;;;;34.76;37.08;100956.88;107556;1251;97815;-62
2023/07/07 10:51:28;;;;;;;;;;;;;;;34.90;37.38;100961.88;107584;1251;97718;-61
2023/07/07 10:54:01;;;;;;;;;;;;;;;35.29;35.85;100953.04;107617;1250;110795;-61
2023/07/07 10:56:41;;;;;;;;;;;;;;;35.16;35.34;100953.88;107607;1251;111261;-61
2023/07/07 10:59:24;;;;;;;;;;;;;;;34.86;35.62;100954.33;107526;1250;108237;-60
2023/07/07 11:01:52;;;;;;;;;;;;;;;34.37;36.20;100956.51;107547;1251;97822;-60
2023/07/07 11:04:20;;;;;;;;;;;;;;;33.92;37.21;100958.80;107555;1251;97909;-60
2023/07/07 11:07:09;;;;;;;;;;;;;;;34.15;36.74;100958.19;107649;1251;111940;-60
2023/07/07 11:09:39;;;;;;;;;;;;;;;34.68;36.56;100949.20;107549;1251;109162;-60
2023/07/07 11:12:24;;;;;;;;;;;;;;;35.04;36.15;100948.16;107604;1251;107713;-62
2023/07/07 11:15:06;;;;;;;;;;;;;;;35.54;35.21;100946.07;107588;1251;97890;-59
2023/07/07 11:17:51;;;;;;;;;;;;;;;35.60;33.95;100942.81;107619;1251;97931;-59
2023/07/07 11:20:28;;;;;;;;;;;;;;;35.84;33.29;100941.48;107652;1251;111907;-60
2023/07/07 11:23:23;;;;;;;;;;;;;;;36.01;33.87;100939.59;107624;1253;109472;-61
2023/07/07 11:25:57;;;;;;;;;;;;;;;36.25;33.26;100936.05;107626;1255;108360;-62
2023/07/07 11:28:52;;;;;;;;;;;;;;;36.21;33.91;100939.61;107595;1251;97824;-61
2023/07/07 11:31:39;;;;;;;;;;;;;;;36.45;34.04;100932.61;107395;1251;98447;-60
2023/07/07 11:34:28;;;;;;;;;;;;;;;36.58;32.98;100932.52;107610;1251;112943;-60
2023/07/07 11:37:19;;;;;;;;;;;;;;;36.49;33.12;100930.12;107574;1251;109246;-65
2023/07/07 11:39:54;;;;;;;;;;;;;;;36.45;33.54;100927.23;107627;1251;107667;-63
2023/07/07 11:42:39;;;;;;;;;;;;;;;36.16;33.02;100925.24;107608;1255;97829;-61
2023/07/07 11:45:19;;;;;;;;;;;;;;;36.03;33.31;100919.34;107627;1251;97746;-61
2023/07/07 11:47:55;;;;;;;;;;;;;;;35.72;33.86;100920.30;107605;1255;112296;-62
2023/07/07 11:50:44;;;;;;;;;;;;;;;35.56;34.04;100916.63;107637;1251;109969;-62
2023/07/07 11:53:24;;;;;;;;;;;;;;;35.43;34.56;100919.60;107575;1251;109830;-63
2023/07/07 11:55:58;;;;;;;;;;;;;;;35.35;34.72;100923.89;107566;1251;97855;-61
2023/07/07 11:58:26;;;;;;;;;;;;;;;35.35;34.57;100920.44;107650;1254;97992;-62
2023/07/07 12:00:58;;;;;;;;;;;;;;;35.28;34.16;100918.61;107610;1254;112233;-63
2023/07/07 12:03:33;;;;;;;;;;;;;;;35.21;34.51;100912.84;107650;1254;109861;-62
2023/07/07 12:06:04;;;;;;;;;;;;;;;35.58;34.50;100907.75;107604;1255;108287;-61
2023/07/07 12:08:43;;;;;;;;;;;;;;;35.68;33.76;100904.92;107656;1253;97803;-63
2023/07/07 12:11:14;;;;;;;;;;;;;;;35.55;33.79;100895.65;107642;1251;97708;-62
2023/07/07 12:13:58;;;;;;;;;;;;;;;35.62;34.06;100895.57;107656;1254;111811;-63
2023/07/07 12:16:27;;;;;;;;;;;;;;;35.94;33.53;100889.20;107581;1251;109869;-63
2023/07/07 12:19:00;;;;;;;;;;;;;;;36.39;33.32;100882.66;107573;1254;107300;-62
2023/07/07 12:21:31;;;;;;;;;;;;;;;37.05;32.64;100881.66;107510;1252;97835;-65
2023/07/07 12:24:19;;;;;;;;;;;;;;;37.06;31.43;100872.23;107596;1253;97736;-63
2023/07/07 12:26:51;;;;;;;;;;;;;;;36.82;31.68;100870.70;107648;1253;112772;-62
2023/07/07 12:29:19;;;;;;;;;;;;;;;36.78;31.54;100862.41;107564;1254;109501;-63
2023/07/07 12:31:49;;;;;;;;;;;;;;;36.61;31.37;100850.38;107583;1254;108594;-63
2023/07/07 12:34:21;;;;;;;;;;;;;;;36.49;32.08;100853.86;107641;1255;97931;-62
2023/07/07 12:36:51;;;;;;;;;;;;;;;36.62;32.29;100852.98;107609;1254;97804;-63
2023/07/07 12:39:19;;;;;;;;;;;;;;;36.91;31.81;100852.67;107583;1254;112613;-62
2023/07/07 12:41:48;;;;;;;;;;;;;;;36.73;31.84;100846.00;107599;1254;110009;-63
2023/07/07 12:44:16;;;;;;;;;;;;;;;36.24;32.51;100848.42;107640;1256;108187;-63